YM Initiative — A8HX4 — position and weather

sailwx.info

Track history (hours):
 
Tides and Currents Weather Stations Pressure Air Temp Water Temp Dewpoint Dewpoint Depression Visibility Wind Speed Wind Dir Waves Ship Positions

YM Initiative

Last reported at 2015-Feb-28 10:12 UTC. Time now 2015-Mar-05 00:17 UTC.
Position N 01°15' E 104°05'.

Length 173 m; draft 7.7 m.

Type: Cargo ship. MMSI: 635961368.

Date/timePositionNaut miles runAvg speedWind from/ knotsBaromVisibWave heightAir tempDewpointWater temp
2015-Feb-28 10:12N 01°15' E 104°05'711.2
2015-Feb-28 09:33N 01°14' E 103°58'10 9.6
2015-Feb-28 08:33N 01°13' E 103°48'4 4.1
2015-Feb-28 07:31N 01°17' E 103°47'0 0.0
2015-Feb-28 06:31N 01°17' E 103°47'0 0.0
2015-Feb-28 05:31N 01°17' E 103°47'0 0.0
2015-Feb-28 04:31N 01°17' E 103°47'0 0.0
2015-Feb-28 03:31N 01°17' E 103°47'0 0.0
2015-Feb-28 02:31N 01°17' E 103°47'0 0.0
2015-Feb-28 01:31N 01°17' E 103°47'0 0.0
2015-Feb-28 00:31N 01°17' E 103°47'0 0.0
2015-Feb-27 23:31N 01°17' E 103°47'0 0.0
2015-Feb-27 22:31N 01°17' E 103°47'0 0.0
2015-Feb-27 21:31N 01°17' E 103°47'0 0.0
2015-Feb-27 20:31N 01°17' E 103°47'0 0.0
2015-Feb-27 19:31N 01°17' E 103°47'0 0.0
2015-Feb-27 18:31N 01°17' E 103°47'0 0.0
2015-Feb-27 17:31N 01°17' E 103°47'0 0.0
2015-Feb-27 16:25N 01°17' E 103°47'0 0.4
2015-Feb-27 15:33N 01°16' E 103°47'3 2.7
2015-Feb-27 14:33N 01°14' E 103°47'6 6.0
2015-Feb-27 13:33N 01°15' E 103°53'0 0.1
2015-Feb-27 12:33N 01°15' E 103°53'0 0.0
2015-Feb-27 11:33N 01°15' E 103°53'0 0.0
2015-Feb-27 10:33N 01°15' E 103°53'0 0.1
2015-Feb-27 09:33N 01°15' E 103°53'4 4.3
2015-Feb-27 08:33N 01°15' E 103°57'1515.2
2015-Feb-27 07:33N 01°17' E 104°12'  
2015-Feb-23 02:33N 01°14' E 104°00'10514.7
2015-Feb-22 19:25N 01°50' E 102°22'24 0.7
2015-Feb-21 11:31N 02°07' E 102°05'1010.0
2015-Feb-21 10:31N 02°01' E 102°12'1311.0
2015-Feb-21 09:23N 01°54' E 102°23'911.4
2015-Feb-21 08:33N 01°50' E 102°32'1111.4
2015-Feb-21 07:33N 01°46' E 102°42'1110.8
2015-Feb-21 06:32N 01°41' E 102°52'56 9.4
2015-Feb-21 00:30N 01°14' E 103°41'5 5.3
2015-Feb-20 23:28N 01°17' E 103°46'0 0.0
2015-Feb-20 22:31N 01°17' E 103°46'0 0.0
2015-Feb-20 20:28N 01°17' E 103°46'0 0.0
2015-Feb-20 19:31N 01°17' E 103°46'0 0.0
2015-Feb-20 18:28N 01°17' E 103°46'0 0.0
2015-Feb-20 17:28N 01°17' E 103°46'0 0.0
2015-Feb-20 16:31N 01°17' E 103°46'0 0.0
2015-Feb-20 15:28N 01°17' E 103°46'0 0.0
2015-Feb-20 14:31N 01°17' E 103°46'0 0.0
2015-Feb-20 13:28N 01°17' E 103°46'0 0.0
2015-Feb-20 12:22N 01°17' E 103°46'0 0.0
2015-Feb-20 11:31N 01°17' E 103°46'0 0.0
2015-Feb-20 10:31N 01°17' E 103°46'0 0.0
2015-Feb-20 09:25N 01°17' E 103°46'0 0.2
2015-Feb-20 08:33N 01°17' E 103°46'4 3.9
2015-Feb-20 07:33N 01°14' E 103°47'10 9.2
2015-Feb-20 06:31N 01°15' E 103°57'1111.3
2015-Feb-20 05:32N 01°17' E 104°08'  
Track history (hours):
 
Tides and Currents Weather Stations Pressure Air Temp Water Temp Dewpoint Dewpoint Depression Visibility Wind Speed Wind Dir Waves Ship Positions

YM Initiative

Last reported at 2015-Feb-28 10:12 UTC. Time now 2015-Mar-05 00:17 UTC.
Position N 01°15' E 104°05'.

Length 173 m; draft 7.7 m.

Type: Cargo ship. MMSI: 635961368.

Date/timePositionNaut miles runAvg speedWind from/ knotsBaromVisibWave heightAir tempDewpointWater temp
2015-Feb-28 10:12N 01°15' E 104°05'711.2
2015-Feb-28 09:33N 01°14' E 103°58'10 9.6
2015-Feb-28 08:33N 01°13' E 103°48'4 4.1
2015-Feb-28 07:31N 01°17' E 103°47'0 0.0
2015-Feb-28 06:31N 01°17' E 103°47'0 0.0
2015-Feb-28 05:31N 01°17' E 103°47'0 0.0
2015-Feb-28 04:31N 01°17' E 103°47'0 0.0
2015-Feb-28 03:31N 01°17' E 103°47'0 0.0
2015-Feb-28 02:31N 01°17' E 103°47'0 0.0
2015-Feb-28 01:31N 01°17' E 103°47'0 0.0
2015-Feb-28 00:31N 01°17' E 103°47'0 0.0
2015-Feb-27 23:31N 01°17' E 103°47'0 0.0
2015-Feb-27 22:31N 01°17' E 103°47'0 0.0
2015-Feb-27 21:31N 01°17' E 103°47'0 0.0
2015-Feb-27 20:31N 01°17' E 103°47'0 0.0
2015-Feb-27 19:31N 01°17' E 103°47'0 0.0
2015-Feb-27 18:31N 01°17' E 103°47'0 0.0
2015-Feb-27 17:31N 01°17' E 103°47'0 0.0
2015-Feb-27 16:25N 01°17' E 103°47'0 0.4
2015-Feb-27 15:33N 01°16' E 103°47'3 2.7
2015-Feb-27 14:33N 01°14' E 103°47'6 6.0
2015-Feb-27 13:33N 01°15' E 103°53'0 0.1
2015-Feb-27 12:33N 01°15' E 103°53'0 0.0
2015-Feb-27 11:33N 01°15' E 103°53'0 0.0
2015-Feb-27 10:33N 01°15' E 103°53'0 0.1
2015-Feb-27 09:33N 01°15' E 103°53'4 4.3
2015-Feb-27 08:33N 01°15' E 103°57'1515.2
2015-Feb-27 07:33N 01°17' E 104°12'  
2015-Feb-23 02:33N 01°14' E 104°00'10514.7
2015-Feb-22 19:25N 01°50' E 102°22'24 0.7
2015-Feb-21 11:31N 02°07' E 102°05'1010.0
2015-Feb-21 10:31N 02°01' E 102°12'1311.0
2015-Feb-21 09:23N 01°54' E 102°23'911.4
2015-Feb-21 08:33N 01°50' E 102°32'1111.4
2015-Feb-21 07:33N 01°46' E 102°42'1110.8
2015-Feb-21 06:32N 01°41' E 102°52'56 9.4
2015-Feb-21 00:30N 01°14' E 103°41'5 5.3
2015-Feb-20 23:28N 01°17' E 103°46'0 0.0
2015-Feb-20 22:31N 01°17' E 103°46'0 0.0
2015-Feb-20 20:28N 01°17' E 103°46'0 0.0
2015-Feb-20 19:31N 01°17' E 103°46'0 0.0
2015-Feb-20 18:28N 01°17' E 103°46'0 0.0
2015-Feb-20 17:28N 01°17' E 103°46'0 0.0
2015-Feb-20 16:31N 01°17' E 103°46'0 0.0
2015-Feb-20 15:28N 01°17' E 103°46'0 0.0
2015-Feb-20 14:31N 01°17' E 103°46'0 0.0
2015-Feb-20 13:28N 01°17' E 103°46'0 0.0
2015-Feb-20 12:22N 01°17' E 103°46'0 0.0
2015-Feb-20 11:31N 01°17' E 103°46'0 0.0
2015-Feb-20 10:31N 01°17' E 103°46'0 0.0
2015-Feb-20 09:25N 01°17' E 103°46'0 0.2
2015-Feb-20 08:33N 01°17' E 103°46'4 3.9
2015-Feb-20 07:33N 01°14' E 103°47'10 9.2
2015-Feb-20 06:31N 01°15' E 103°57'1111.3
2015-Feb-20 05:32N 01°17' E 104°08'  

Dump ship's entire track history